sensor_id;sensor_type;location;lat;lon;timestamp;pressure;altitude;pressure_sealevel;temperature;humidity
45253;BME280;63171;50.520;30.486;2024-02-23T00:00:23;99611.75;;;7.57;100.00
45253;BME280;63171;50.520;30.486;2024-02-23T00:01:12;99619.00;;;7.67;100.00
45253;BME280;63171;50.520;30.486;2024-02-23T00:02:03;99630.34;;;7.82;100.00
45253;BME280;63171;50.520;30.486;2024-02-23T00:02:53;99622.88;;;7.92;100.00
45253;BME280;63171;50.520;30.486;2024-02-23T00:03:43;99620.84;;;7.97;100.00
45253;BME280;63171;50.520;30.486;2024-02-23T00:04:34;99581.25;;;7.90;100.00
45253;BME280;63171;50.520;30.486;2024-02-23T00:05:23;99616.91;;;7.90;100.00
45253;BME280;63171;50.520;30.486;2024-02-23T00:06:14;99625.31;;;7.79;100.00
45253;BME280;63171;50.520;30.486;2024-02-23T00:07:05;99612.69;;;7.87;100.00
45253;BME280;63171;50.520;30.486;2024-02-23T00:07:54;99610.59;;;7.78;100.00
45253;BME280;63171;50.520;30.486;2024-02-23T00:08:45;99603.44;;;7.97;100.00
45253;BME280;63171;50.520;30.486;2024-02-23T00:09:35;99608.75;;;7.96;100.00
45253;BME280;63171;50.520;30.486;2024-02-23T00:10:25;99596.22;;;8.03;100.00
45253;BME280;63171;50.520;30.486;2024-02-23T00:11:16;99599.47;;;8.06;100.00
45253;BME280;63171;50.520;30.486;2024-02-23T00:12:06;99622.72;;;7.95;100.00
45253;BME280;63171;50.520;30.486;2024-02-23T00:12:57;99601.94;;;7.93;100.00
45253;BME280;63171;50.520;30.486;2024-02-23T00:13:50;99618.00;;;7.86;100.00
45253;BME280;63171;50.520;30.486;2024-02-23T00:14:41;99618.16;;;7.83;100.00
45253;BME280;63171;50.520;30.486;2024-02-23T00:15:30;99605.88;;;7.85;100.00
45253;BME280;63171;50.520;30.486;2024-02-23T00:16:21;99612.69;;;7.87;100.00
45253;BME280;63171;50.520;30.486;2024-02-23T00:17:11;99615.47;;;7.84;100.00
45253;BME280;63171;50.520;30.486;2024-02-23T00:18:01;99613.47;;;7.89;100.00
45253;BME280;63171;50.520;30.486;2024-02-23T00:18:53;99612.19;;;7.96;100.00
45253;BME280;63171;50.520;30.486;2024-02-23T00:19:45;99605.88;;;7.85;100.00
45253;BME280;63171;50.520;30.486;2024-02-23T00:20:36;99606.91;;;7.82;100.00
45253;BME280;63171;50.520;30.486;2024-02-23T00:21:25;99599.84;;;7.68;100.00
45253;BME280;63171;50.520;30.486;2024-02-23T00:22:16;99615.72;;;7.64;100.00
45253;BME280;63171;50.520;30.486;2024-02-23T00:23:06;99586.72;;;7.70;100.00
45253;BME280;63171;50.520;30.486;2024-02-23T00:23:56;99612.78;;;7.86;100.00
45253;BME280;63171;50.520;30.486;2024-02-23T00:24:46;99617.06;;;7.87;100.00
45253;BME280;63171;50.520;30.486;2024-02-23T00:25:36;99606.22;;;7.94;100.00
45253;BME280;63171;50.520;30.486;2024-02-23T00:26:25;99602.34;;;8.02;100.00
45253;BME280;63171;50.520;30.486;2024-02-23T00:27:17;99604.59;;;8.23;100.00
45253;BME280;63171;50.520;30.486;2024-02-23T00:28:07;99611.25;;;8.29;100.00
45253;BME280;63171;50.520;30.486;2024-02-23T00:28:57;99600.97;;;8.10;100.00
45253;BME280;63171;50.520;30.486;2024-02-23T00:29:49;99613.28;;;8.08;100.00
45253;BME280;63171;50.520;30.486;2024-02-23T00:30:38;99619.91;;;8.14;100.00
45253;BME280;63171;50.520;30.486;2024-02-23T00:31:28;99604.84;;;8.19;100.00
45253;BME280;63171;50.520;30.486;2024-02-23T00:32:19;99600.47;;;8.19;100.00
45253;BME280;63171;50.520;30.486;2024-02-23T00:33:09;99612.50;;;8.22;100.00
45253;BME280;63171;50.520;30.486;2024-02-23T00:33:59;99606.63;;;8.18;100.00
45253;BME280;63171;50.520;30.486;2024-02-23T00:34:50;99609.91;;;8.06;100.00
45253;BME280;63171;50.520;30.486;2024-02-23T00:35:39;99610.09;;;8.03;100.00
45253;BME280;63171;50.520;30.486;2024-02-23T00:36:29;99595.69;;;7.96;100.00
45253;BME280;63171;50.520;30.486;2024-02-23T00:37:20;99612.47;;;7.76;100.00
45253;BME280;63171;50.520;30.486;2024-02-23T00:38:09;99598.41;;;7.79;100.00
45253;BME280;63171;50.520;30.486;2024-02-23T00:38:59;99602.41;;;8.00;100.00
45253;BME280;63171;50.520;30.486;2024-02-23T00:39:50;99597.03;;;7.87;100.00
45253;BME280;63171;50.520;30.486;2024-02-23T00:40:40;99606.06;;;7.82;100.00
45253;BME280;63171;50.520;30.486;2024-02-23T00:41:30;99605.03;;;7.84;100.00
45253;BME280;63171;50.520;30.486;2024-02-23T00:42:20;99597.75;;;7.75;100.00
45253;BME280;63171;50.520;30.486;2024-02-23T00:43:10;99598.91;;;7.69;100.00
45253;BME280;63171;50.520;30.486;2024-02-23T00:44:01;99592.09;;;7.83;100.00
45253;BME280;63171;50.520;30.486;2024-02-23T00:44:52;99603.97;;;7.88;100.00
45253;BME280;63171;50.520;30.486;2024-02-23T00:45:42;99593.94;;;7.96;100.00
45253;BME280;63171;50.520;30.486;2024-02-23T00:46:33;99597.72;;;8.07;100.00
45253;BME280;63171;50.520;30.486;2024-02-23T00:47:23;99588.97;;;8.08;100.00
45253;BME280;63171;50.520;30.486;2024-02-23T00:48:14;99588.22;;;8.06;100.00
45253;BME280;63171;50.520;30.486;2024-02-23T00:49:05;99600.66;;;8.16;100.00
45253;BME280;63171;50.520;30.486;2024-02-23T00:49:55;99599.81;;;8.16;100.00
45253;BME280;63171;50.520;30.486;2024-02-23T00:50:45;99598.66;;;8.06;100.00
45253;BME280;63171;50.520;30.486;2024-02-23T00:51:35;99593.09;;;7.96;100.00
45253;BME280;63171;50.520;30.486;2024-02-23T00:52:25;99598.72;;;8.04;100.00
45253;BME280;63171;50.520;30.486;2024-02-23T00:53:15;99608.56;;;7.99;100.00
45253;BME280;63171;50.520;30.486;2024-02-23T00:54:07;99601.19;;;7.91;100.00
45253;BME280;63171;50.520;30.486;2024-02-23T00:54:58;99614.72;;;7.82;100.00
45253;BME280;63171;50.520;30.486;2024-02-23T00:55:48;99606.06;;;7.66;100.00
45253;BME280;63171;50.520;30.486;2024-02-23T00:56:38;99600.41;;;7.42;100.00
45253;BME280;63171;50.520;30.486;2024-02-23T00:57:29;99607.53;;;7.38;100.00
45253;BME280;63171;50.520;30.486;2024-02-23T00:58:19;99606.63;;;7.55;100.00
45253;BME280;63171;50.520;30.486;2024-02-23T00:59:09;99611.69;;;7.74;100.00
45253;BME280;63171;50.520;30.486;2024-02-23T01:00:01;99621.53;;;7.85;100.00
45253;BME280;63171;50.520;30.486;2024-02-23T01:04:05;99616.97;;;7.57;100.00
45253;BME280;63171;50.520;30.486;2024-02-23T01:04:56;99589.22;;;7.40;100.00
45253;BME280;63171;50.520;30.486;2024-02-23T01:05:48;99618.81;;;7.39;100.00
45253;BME280;63171;50.520;30.486;2024-02-23T01:06:37;99606.06;;;7.50;100.00
45253;BME280;63171;50.520;30.486;2024-02-23T01:07:28;99604.19;;;7.36;100.00
45253;BME280;63171;50.520;30.486;2024-02-23T01:08:19;99616.00;;;7.26;100.00
45253;BME280;63171;50.520;30.486;2024-02-23T01:09:09;99607.94;;;7.31;100.00
45253;BME280;63171;50.520;30.486;2024-02-23T01:09:59;99597.94;;;7.23;100.00
45253;BME280;63171;50.520;30.486;2024-02-23T01:10:50;99604.25;;;7.02;100.00
45253;BME280;63171;50.520;30.486;2024-02-23T01:11:39;99600.13;;;7.31;100.00
45253;BME280;63171;50.520;30.486;2024-02-23T01:12:30;99612.84;;;7.53;100.00
45253;BME280;63171;50.520;30.486;2024-02-23T01:13:20;99608.41;;;7.55;100.00
45253;BME280;63171;50.520;30.486;2024-02-23T01:14:10;99602.84;;;7.61;100.00
45253;BME280;63171;50.520;30.486;2024-02-23T01:15:04;99610.84;;;7.58;100.00
45253;BME280;63171;50.520;30.486;2024-02-23T01:15:53;99593.09;;;7.49;100.00
45253;BME280;63171;50.520;30.486;2024-02-23T01:16:43;99600.22;;;7.45;100.00
45253;BME280;63171;50.520;30.486;2024-02-23T01:17:34;99570.06;;;7.57;100.00
45253;BME280;63171;50.520;30.486;2024-02-23T01:18:26;99596.13;;;7.57;100.00
45253;BME280;63171;50.520;30.486;2024-02-23T01:19:17;99606.22;;;7.63;100.00
45253;BME280;63171;50.520;30.486;2024-02-23T01:20:08;99608.94;;;7.61;100.00
45253;BME280;63171;50.520;30.486;2024-02-23T01:20:59;99598.13;;;7.36;100.00
45253;BME280;63171;50.520;30.486;2024-02-23T01:21:49;99591.16;;;7.36;100.00
45253;BME280;63171;50.520;30.486;2024-02-23T01:22:48;99568.63;;;7.35;100.00
45253;BME280;63171;50.520;30.486;2024-02-23T01:23:38;99598.47;;;7.46;100.00
45253;BME280;63171;50.520;30.486;2024-02-23T01:24:28;99597.31;;;7.67;100.00
45253;BME280;63171;50.520;30.486;2024-02-23T01:25:18;99607.47;;;7.40;100.00
45253;BME280;63171;50.520;30.486;2024-02-23T01:26:08;99586.03;;;7.51;100.00
45253;BME280;63171;50.520;30.486;2024-02-23T01:26:59;99597.63;;;7.61;100.00
45253;BME280;63171;50.520;30.486;2024-02-23T01:27:49;99581.50;;;7.70;100.00
45253;BME280;63171;50.520;30.486;2024-02-23T01:28:39;99575.19;;;7.58;100.00
45253;BME280;63171;50.520;30.486;2024-02-23T01:29:30;99583.25;;;7.38;100.00
45253;BME280;63171;50.520;30.486;2024-02-23T01:30:21;99596.22;;;7.55;100.00
45253;BME280;63171;50.520;30.486;2024-02-23T01:31:11;99588.56;;;7.68;100.00
45253;BME280;63171;50.520;30.486;2024-02-23T01:32:02;99592.69;;;7.72;100.00
45253;BME280;63171;50.520;30.486;2024-02-23T01:32:52;99600.66;;;7.69;100.00
45253;BME280;63171;50.520;30.486;2024-02-23T01:33:43;99594.97;;;7.78;100.00
45253;BME280;63171;50.520;30.486;2024-02-23T01:34:33;99588.00;;;7.63;100.00
45253;BME280;63171;50.520;30.486;2024-02-23T01:35:23;99595.59;;;7.34;100.00
45253;BME280;63171;50.520;30.486;2024-02-23T01:36:14;99592.97;;;7.34;100.00
45253;BME280;63171;50.520;30.486;2024-02-23T01:37:04;99579.94;;;7.19;100.00
45253;BME280;63171;50.520;30.486;2024-02-23T01:37:54;99591.91;;;7.38;100.00
45253;BME280;63171;50.520;30.486;2024-02-23T01:38:45;99594.88;;;7.48;100.00
45253;BME280;63171;50.520;30.486;2024-02-23T01:39:34;99584.38;;;7.50;100.00
45253;BME280;63171;50.520;30.486;2024-02-23T01:40:25;99601.31;;;7.41;100.00
45253;BME280;63171;50.520;30.486;2024-02-23T01:41:15;99558.88;;;7.39;100.00
45253;BME280;63171;50.520;30.486;2024-02-23T01:42:05;99591.75;;;7.41;100.00
45253;BME280;63171;50.520;30.486;2024-02-23T01:43:05;99572.66;;;7.41;100.00
45253;BME280;63171;50.520;30.486;2024-02-23T01:43:55;99580.75;;;7.52;100.00
45253;BME280;63171;50.520;30.486;2024-02-23T01:44:45;99583.84;;;7.59;100.00
45253;BME280;63171;50.520;30.486;2024-02-23T01:45:37;99571.91;;;7.39;100.00
45253;BME280;63171;50.520;30.486;2024-02-23T01:46:28;99580.81;;;7.35;100.00
45253;BME280;63171;50.520;30.486;2024-02-23T01:47:18;99582.63;;;7.33;100.00
45253;BME280;63171;50.520;30.486;2024-02-23T01:48:08;99585.03;;;7.37;100.00
45253;BME280;63171;50.520;30.486;2024-02-23T01:48:58;99599.38;;;7.45;100.00
45253;BME280;63171;50.520;30.486;2024-02-23T01:49:48;99585.50;;;7.28;100.00
45253;BME280;63171;50.520;30.486;2024-02-23T01:50:39;99586.94;;;7.34;100.00
45253;BME280;63171;50.520;30.486;2024-02-23T01:51:29;99589.56;;;7.50;100.00
45253;BME280;63171;50.520;30.486;2024-02-23T01:52:20;99588.81;;;7.63;100.00
45253;BME280;63171;50.520;30.486;2024-02-23T01:53:12;99592.69;;;7.56;100.00
45253;BME280;63171;50.520;30.486;2024-02-23T01:54:02;99596.13;;;7.57;100.00
45253;BME280;63171;50.520;30.486;2024-02-23T01:54:54;99577.38;;;7.50;100.00
45253;BME280;63171;50.520;30.486;2024-02-23T01:55:45;99595.03;;;7.61;100.00
45253;BME280;63171;50.520;30.486;2024-02-23T01:56:35;99597.13;;;7.54;100.00
45253;BME280;63171;50.520;30.486;2024-02-23T01:57:29;99598.22;;;7.50;100.00
45253;BME280;63171;50.520;30.486;2024-02-23T01:58:18;99598.22;;;7.50;100.00
45253;BME280;63171;50.520;30.486;2024-02-23T01:59:10;99571.81;;;7.40;100.00
45253;BME280;63171;50.520;30.486;2024-02-23T02:00:02;99590.50;;;7.49;100.00
45253;BME280;63171;50.520;30.486;2024-02-23T02:00:55;99586.53;;;7.41;100.00
45253;BME280;63171;50.520;30.486;2024-02-23T02:01:45;99580.31;;;7.44;100.00
45253;BME280;63171;50.520;30.486;2024-02-23T02:02:36;99600.13;;;7.47;100.00
45253;BME280;63171;50.520;30.486;2024-02-23T02:03:27;99595.47;;;7.53;100.00
45253;BME280;63171;50.520;30.486;2024-02-23T02:04:17;99586.28;;;7.46;100.00
45253;BME280;63171;50.520;30.486;2024-02-23T02:05:08;99595.41;;;7.22;100.00
45253;BME280;63171;50.520;30.486;2024-02-23T02:05:58;99588.44;;;7.22;100.00
45253;BME280;63171;50.520;30.486;2024-02-23T02:06:48;99592.72;;;7.23;100.00
45253;BME280;63171;50.520;30.486;2024-02-23T02:07:40;99591.97;;;7.21;100.00
45253;BME280;63171;50.520;30.486;2024-02-23T02:08:30;99573.97;;;7.17;100.00
45253;BME280;63171;50.520;30.486;2024-02-23T02:09:20;99588.94;;;7.29;100.00
45253;BME280;63171;50.520;30.486;2024-02-23T02:10:11;99581.56;;;7.21;100.00
45253;BME280;63171;50.520;30.486;2024-02-23T02:11:01;99579.06;;;7.35;100.00
45253;BME280;63171;50.520;30.486;2024-02-23T02:11:51;99588.47;;;7.38;100.00
45253;BME280;63171;50.520;30.486;2024-02-23T02:12:41;99591.09;;;7.54;100.00
45253;BME280;63171;50.520;30.486;2024-02-23T02:13:31;99587.06;;;7.64;100.00
45253;BME280;63171;50.520;30.486;2024-02-23T02:14:22;99586.03;;;7.35;100.00
45253;BME280;63171;50.520;30.486;2024-02-23T02:15:12;99569.41;;;7.04;100.00
45253;BME280;63171;50.520;30.486;2024-02-23T02:16:03;99584.84;;;7.07;100.00
45253;BME280;63171;50.520;30.486;2024-02-23T02:16:54;99587.16;;;7.14;100.00
45253;BME280;63171;50.520;30.486;2024-02-23T02:17:44;99586.78;;;7.04;100.00
45253;BME280;63171;50.520;30.486;2024-02-23T02:18:34;99583.72;;;7.13;100.00
45253;BME280;63171;50.520;30.486;2024-02-23T02:19:24;99598.88;;;7.22;100.00
45253;BME280;63171;50.520;30.486;2024-02-23T02:20:14;99585.00;;;7.22;100.00
45253;BME280;63171;50.520;30.486;2024-02-23T02:21:04;99578.94;;;7.21;100.00
45253;BME280;63171;50.520;30.486;2024-02-23T02:21:55;99573.75;;;7.21;100.00
45253;BME280;63171;50.520;30.486;2024-02-23T02:22:44;99577.41;;;7.17;100.00
45253;BME280;63171;50.520;30.486;2024-02-23T02:23:34;99585.75;;;7.24;100.00
45253;BME280;63171;50.520;30.486;2024-02-23T02:24:26;99575.66;;;7.33;100.00
45253;BME280;63171;50.520;30.486;2024-02-23T02:25:16;99588.44;;;7.22;100.00
45253;BME280;63171;50.520;30.486;2024-02-23T02:26:06;99585.72;;;7.08;100.00
45253;BME280;63171;50.520;30.486;2024-02-23T02:26:57;99578.06;;;7.05;100.00
45253;BME280;63171;50.520;30.486;2024-02-23T02:27:46;99586.41;;;7.11;100.00
45253;BME280;63171;50.520;30.486;2024-02-23T02:28:36;99577.13;;;7.06;100.00
45253;BME280;63171;50.520;30.486;2024-02-23T02:29:27;99568.75;;;7.17;100.00
45253;BME280;63171;50.520;30.486;2024-02-23T02:30:17;99578.50;;;7.13;100.00
45253;BME280;63171;50.520;30.486;2024-02-23T02:31:09;99572.00;;;7.04;100.00
45253;BME280;63171;50.520;30.486;2024-02-23T02:31:59;99565.66;;;7.10;100.00
45253;BME280;63171;50.520;30.486;2024-02-23T02:32:48;99577.28;;;7.03;100.00
45253;BME280;63171;50.520;30.486;2024-02-23T02:33:40;99577.91;;;7.08;100.00
45253;BME280;63171;50.520;30.486;2024-02-23T02:34:29;99569.31;;;7.06;100.00
45253;BME280;63171;50.520;30.486;2024-02-23T02:35:19;99567.31;;;6.95;100.00
45253;BME280;63171;50.520;30.486;2024-02-23T02:36:10;99574.03;;;6.99;100.00
45253;BME280;63171;50.520;30.486;2024-02-23T02:37:00;99583.59;;;6.99;100.00
45253;BME280;63171;50.520;30.486;2024-02-23T02:37:50;99579.22;;;6.99;100.00
45253;BME280;63171;50.520;30.486;2024-02-23T02:38:41;99579.06;;;7.02;100.00
45253;BME280;63171;50.520;30.486;2024-02-23T02:39:31;99580.16;;;6.81;100.00
45253;BME280;63171;50.520;30.486;2024-02-23T02:40:21;99568.16;;;6.78;100.00
45253;BME280;63171;50.520;30.486;2024-02-23T02:41:12;99580.75;;;7.03;100.00
45253;BME280;63171;50.520;30.486;2024-02-23T02:42:01;99583.88;;;7.10;100.00
45253;BME280;63171;50.520;30.486;2024-02-23T02:42:51;99562.09;;;6.95;100.00
45253;BME280;63171;50.520;30.486;2024-02-23T02:43:42;99586.38;;;6.78;100.00
45253;BME280;63171;50.520;30.486;2024-02-23T02:44:32;99569.06;;;6.95;100.00
45253;BME280;63171;50.520;30.486;2024-02-23T02:45:22;99575.31;;;7.08;100.00
45253;BME280;63171;50.520;30.486;2024-02-23T02:46:14;99569.69;;;7.16;100.00
45253;BME280;63171;50.520;30.486;2024-02-23T02:47:04;99566.16;;;7.32;100.00
45253;BME280;63171;50.520;30.486;2024-02-23T02:47:55;99564.19;;;7.37;100.00
45253;BME280;63171;50.520;30.486;2024-02-23T02:48:45;99573.75;;;7.37;100.00
45253;BME280;63171;50.520;30.486;2024-02-23T02:49:36;99573.84;;;7.35;100.00
45253;BME280;63171;50.520;30.486;2024-02-23T02:50:26;99574.81;;;7.17;100.00
45253;BME280;63171;50.520;30.486;2024-02-23T02:51:16;99554.72;;;7.19;100.00
45253;BME280;63171;50.520;30.486;2024-02-23T02:52:07;99566.31;;;7.14;100.00
45253;BME280;63171;50.520;30.486;2024-02-23T02:52:58;99567.41;;;7.09;100.00
45253;BME280;63171;50.520;30.486;2024-02-23T02:53:47;99571.91;;;7.06;100.00
45253;BME280;63171;50.520;30.486;2024-02-23T02:54:38;99566.41;;;7.12;100.00
45253;BME280;63171;50.520;30.486;2024-02-23T02:55:28;99562.88;;;7.13;100.00
45253;BME280;63171;50.520;30.486;2024-02-23T02:56:18;99570.25;;;7.05;100.00
45253;BME280;63171;50.520;30.486;2024-02-23T02:57:09;99560.09;;;7.16;100.00
45253;BME280;63171;50.520;30.486;2024-02-23T02:57:59;99567.59;;;7.22;100.00
45253;BME280;63171;50.520;30.486;2024-02-23T02:58:49;99576.88;;;7.44;100.00
45253;BME280;63171;50.520;30.486;2024-02-23T02:59:40;99561.31;;;7.58;100.00
45253;BME280;63171;50.520;30.486;2024-02-23T03:00:29;99568.88;;;7.47;100.00
45253;BME280;63171;50.520;30.486;2024-02-23T03:01:21;99572.97;;;7.19;100.00
45253;BME280;63171;50.520;30.486;2024-02-23T03:02:12;99562.53;;;7.19;100.00
45253;BME280;63171;50.520;30.486;2024-02-23T03:03:02;99576.72;;;6.98;100.00
45253;BME280;63171;50.520;30.486;2024-02-23T03:03:53;99562.44;;;7.05;100.00
45253;BME280;63171;50.520;30.486;2024-02-23T03:04:47;99575.34;;;7.24;100.00
45253;BME280;63171;50.520;30.486;2024-02-23T03:05:37;99571.09;;;7.05;100.00
45253;BME280;63171;50.520;30.486;2024-02-23T03:06:27;99575.97;;;7.11;100.00
45253;BME280;63171;50.520;30.486;2024-02-23T03:07:17;99591.41;;;6.99;100.00
45253;BME280;63171;50.520;30.486;2024-02-23T03:08:07;99566.75;;;6.89;100.00
45253;BME280;63171;50.520;30.486;2024-02-23T03:08:58;99584.53;;;6.80;100.00
45253;BME280;63171;50.520;30.486;2024-02-23T03:09:47;99559.59;;;6.76;100.00
45253;BME280;63171;50.520;30.486;2024-02-23T03:10:39;99559.28;;;6.82;100.00
45253;BME280;63171;50.520;30.486;2024-02-23T03:11:28;99562.41;;;6.89;100.00
45253;BME280;63171;50.520;30.486;2024-02-23T03:12:18;99580.16;;;6.98;100.00
45253;BME280;63171;50.520;30.486;2024-02-23T03:13:08;99586.63;;;7.07;100.00
45253;BME280;63171;50.520;30.486;2024-02-23T03:13:58;99581.28;;;7.10;100.00
45253;BME280;63171;50.520;30.486;2024-02-23T03:14:48;99563.88;;;7.10;100.00
45253;BME280;63171;50.520;30.486;2024-02-23T03:15:38;99561.78;;;7.17;100.00
45253;BME280;63171;50.520;30.486;2024-02-23T03:16:29;99562.91;;;7.29;100.00
45253;BME280;63171;50.520;30.486;2024-02-23T03:17:20;99562.44;;;7.21;100.00
45253;BME280;63171;50.520;30.486;2024-02-23T03:18:11;99565.16;;;7.19;100.00
45253;BME280;63171;50.520;30.486;2024-02-23T03:19:02;99569.38;;;7.22;100.00
45253;BME280;63171;50.520;30.486;2024-02-23T03:19:52;99570.34;;;7.19;100.00
45253;BME280;63171;50.520;30.486;2024-02-23T03:20:42;99569.88;;;7.28;100.00
45253;BME280;63171;50.520;30.486;2024-02-23T03:21:32;99577.25;;;7.20;100.00
45253;BME280;63171;50.520;30.486;2024-02-23T03:22:21;99581.13;;;7.29;100.00
45253;BME280;63171;50.520;30.486;2024-02-23T03:23:12;99564.91;;;7.24;100.00
45253;BME280;63171;50.520;30.486;2024-02-23T03:24:03;99553.31;;;7.14;100.00
45253;BME280;63171;50.520;30.486;2024-02-23T03:24:52;99582.31;;;7.23;100.00
45253;BME280;63171;50.520;30.486;2024-02-23T03:25:43;99576.66;;;7.15;100.00
45253;BME280;63171;50.520;30.486;2024-02-23T03:26:33;99574.72;;;7.19;100.00
45253;BME280;63171;50.520;30.486;2024-02-23T03:27:28;99572.09;;;7.36;100.00
45253;BME280;63171;50.520;30.486;2024-02-23T03:28:19;99582.06;;;7.44;100.00
45253;BME280;63171;50.520;30.486;2024-02-23T03:29:10;99580.66;;;7.38;100.00
45253;BME280;63171;50.520;30.486;2024-02-23T03:30:00;99573.22;;;7.30;100.00
45253;BME280;63171;50.520;30.486;2024-02-23T03:30:50;99593.13;;;7.16;100.00
45253;BME280;63171;50.520;30.486;2024-02-23T03:31:42;99583.44;;;7.02;100.00
45253;BME280;63171;50.520;30.486;2024-02-23T03:32:32;99577.13;;;7.06;100.00
45253;BME280;63171;50.520;30.486;2024-02-23T03:33:26;99589.69;;;7.15;100.00
45253;BME280;63171;50.520;30.486;2024-02-23T03:34:17;99568.00;;;7.15;100.00
45253;BME280;63171;50.520;30.486;2024-02-23T03:35:07;99591.81;;;7.07;100.00
45253;BME280;63171;50.520;30.486;2024-02-23T03:35:58;99582.19;;;7.09;100.00
45253;BME280;63171;50.520;30.486;2024-02-23T03:36:48;99587.91;;;7.16;100.00
45253;BME280;63171;50.520;30.486;2024-02-23T03:37:38;99577.66;;;7.13;100.00
45253;BME280;63171;50.520;30.486;2024-02-23T03:38:29;99575.44;;;7.22;100.00
45253;BME280;63171;50.520;30.486;2024-02-23T03:39:20;99590.06;;;7.40;100.00
45253;BME280;63171;50.520;30.486;2024-02-23T03:40:10;99589.31;;;7.54;100.00
45253;BME280;63171;50.520;30.486;2024-02-23T03:41:00;99583.84;;;7.59;100.00
45253;BME280;63171;50.520;30.486;2024-02-23T03:41:50;99577.66;;;7.61;100.00
45253;BME280;63171;50.520;30.486;2024-02-23T03:42:41;99586.78;;;7.37;100.00
45253;BME280;63171;50.520;30.486;2024-02-23T03:43:31;99580.69;;;7.21;100.00
45253;BME280;63171;50.520;30.486;2024-02-23T03:44:21;99587.47;;;7.40;100.00
45253;BME280;63171;50.520;30.486;2024-02-23T03:45:11;99593.59;;;7.55;100.00
45253;BME280;63171;50.520;30.486;2024-02-23T03:46:01;99575.19;;;7.58;100.00
45253;BME280;63171;50.520;30.486;2024-02-23T03:46:53;99582.16;;;7.58;100.00
45253;BME280;63171;50.520;30.486;2024-02-23T03:47:43;99588.88;;;7.46;100.00
45253;BME280;63171;50.520;30.486;2024-02-23T03:48:33;99580.91;;;7.49;100.00
45253;BME280;63171;50.520;30.486;2024-02-23T03:49:23;99584.94;;;7.55;100.00
45253;BME280;63171;50.520;30.486;2024-02-23T03:50:13;99583.19;;;7.71;100.00
45253;BME280;63171;50.520;30.486;2024-02-23T03:51:04;99584.72;;;7.75;100.00
45253;BME280;63171;50.520;30.486;2024-02-23T03:51:54;99589.06;;;7.59;100.00
45253;BME280;63171;50.520;30.486;2024-02-23T03:52:44;99578.53;;;7.60;100.00
45253;BME280;63171;50.520;30.486;2024-02-23T03:53:35;99582.81;;;7.46;100.00
45253;BME280;63171;50.520;30.486;2024-02-23T03:54:25;99570.81;;;7.43;100.00
45253;BME280;63171;50.520;30.486;2024-02-23T03:55:14;99577.28;;;7.36;100.00
45253;BME280;63171;50.520;30.486;2024-02-23T03:56:06;99582.41;;;7.37;100.00
45253;BME280;63171;50.520;30.486;2024-02-23T03:56:55;99589.38;;;7.21;100.00
45253;BME280;63171;50.520;30.486;2024-02-23T03:57:45;99568.28;;;7.26;100.00
45253;BME280;63171;50.520;30.486;2024-02-23T03:58:36;99580.56;;;7.39;100.00
45253;BME280;63171;50.520;30.486;2024-02-23T03:59:26;99573.00;;;7.35;100.00
45253;BME280;63171;50.520;30.486;2024-02-23T04:00:17;99576.03;;;7.43;100.00
45253;BME280;63171;50.520;30.486;2024-02-23T04:01:09;99571.91;;;7.39;100.00
45253;BME280;63171;50.520;30.486;2024-02-23T04:02:00;99587.72;;;7.52;100.00
45253;BME280;63171;50.520;30.486;2024-02-23T04:02:50;99588.97;;;7.45;100.00
45253;BME280;63171;50.520;30.486;2024-02-23T04:03:42;99585.66;;;7.25;100.00
45253;BME280;63171;50.520;30.486;2024-02-23T04:04:33;99584.38;;;7.17;100.00
45253;BME280;63171;50.520;30.486;2024-02-23T04:05:22;99591.72;;;7.26;100.00
45253;BME280;63171;50.520;30.486;2024-02-23T04:06:13;99575.56;;;7.19;100.00
45253;BME280;63171;50.520;30.486;2024-02-23T04:07:03;99591.28;;;7.18;100.00
45253;BME280;63171;50.520;30.486;2024-02-23T04:07:53;99594.09;;;6.97;100.00
45253;BME280;63171;50.520;30.486;2024-02-23T04:08:44;99583.72;;;7.13;100.00
45253;BME280;63171;50.520;30.486;2024-02-23T04:09:34;99576.69;;;7.31;100.00
45253;BME280;63171;50.520;30.486;2024-02-23T04:10:23;99575.84;;;7.30;100.00
45253;BME280;63171;50.520;30.486;2024-02-23T04:11:15;99571.81;;;7.40;100.00
45253;BME280;63171;50.520;30.486;2024-02-23T04:12:05;99582.06;;;7.28;100.00
45253;BME280;63171;50.520;30.486;2024-02-23T04:12:57;99570.72;;;7.29;100.00
45253;BME280;63171;50.520;30.486;2024-02-23T04:13:54;99587.41;;;7.09;100.00
45253;BME280;63171;50.520;30.486;2024-02-23T04:14:44;99588.75;;;7.16;100.00
45253;BME280;63171;50.520;30.486;2024-02-23T04:15:34;99579.72;;;7.23;100.00
45253;BME280;63171;50.520;30.486;2024-02-23T04:16:25;99574.16;;;7.29;100.00
45253;BME280;63171;50.520;30.486;2024-02-23T04:17:16;99576.00;;;7.27;100.00
45253;BME280;63171;50.520;30.486;2024-02-23T04:18:07;99574.59;;;7.22;100.00
45253;BME280;63171;50.520;30.486;2024-02-23T04:18:57;99582.06;;;7.28;100.00
45253;BME280;63171;50.520;30.486;2024-02-23T04:19:47;99570.81;;;7.27;100.00
45253;BME280;63171;50.520;30.486;2024-02-23T04:20:38;99582.56;;;7.34;100.00
45253;BME280;63171;50.520;30.486;2024-02-23T04:21:28;99586.44;;;7.27;100.00
45253;BME280;63171;50.520;30.486;2024-02-23T04:22:18;99584.84;;;7.07;100.00
45253;BME280;63171;50.520;30.486;2024-02-23T04:23:08;99579.97;;;7.01;100.00
45253;BME280;63171;50.520;30.486;2024-02-23T04:24:00;99573.94;;;7.01;100.00
45253;BME280;63171;50.520;30.486;2024-02-23T04:24:51;99574.22;;;7.12;100.00
45253;BME280;63171;50.520;30.486;2024-02-23T04:25:41;99572.38;;;7.14;100.00
45253;BME280;63171;50.520;30.486;2024-02-23T04:26:31;99585.78;;;7.06;100.00
45253;BME280;63171;50.520;30.486;2024-02-23T04:27:22;99580.22;;;6.97;100.00